sensor_id;sensor_type;location;lat;lon;timestamp;temperature;humidity
25741;DHT22;13592;50.838;4.412;2023-01-06T00:02:13;13.10;99.90
25741;DHT22;13592;50.838;4.412;2023-01-06T00:08:01;13.20;99.90
25741;DHT22;13592;50.838;4.412;2023-01-06T00:10:41;13.30;99.90
25741;DHT22;13592;50.838;4.412;2023-01-06T00:13:12;13.30;99.90
25741;DHT22;13592;50.838;4.412;2023-01-06T00:15:38;13.20;99.90
25741;DHT22;13592;50.838;4.412;2023-01-06T00:18:06;13.30;99.90
25741;DHT22;13592;50.838;4.412;2023-01-06T00:23:27;13.00;99.90
25741;DHT22;13592;50.838;4.412;2023-01-06T00:25:53;13.00;99.90
25741;DHT22;13592;50.838;4.412;2023-01-06T00:28:32;13.10;99.90
25741;DHT22;13592;50.838;4.412;2023-01-06T00:31:07;13.00;99.90
25741;DHT22;13592;50.838;4.412;2023-01-06T00:33:41;12.90;99.90
25741;DHT22;13592;50.838;4.412;2023-01-06T00:36:08;13.10;99.90
25741;DHT22;13592;50.838;4.412;2023-01-06T00:38:34;13.30;99.90
25741;DHT22;13592;50.838;4.412;2023-01-06T00:46:51;13.30;99.90
25741;DHT22;13592;50.838;4.412;2023-01-06T00:49:17;13.30;99.90
25741;DHT22;13592;50.838;4.412;2023-01-06T00:51:43;13.40;99.90
25741;DHT22;13592;50.838;4.412;2023-01-06T00:54:18;13.20;99.90
25741;DHT22;13592;50.838;4.412;2023-01-06T00:56:46;13.10;99.90
25741;DHT22;13592;50.838;4.412;2023-01-06T00:59:13;13.30;99.90
25741;DHT22;13592;50.838;4.412;2023-01-06T01:01:43;13.30;99.90
25741;DHT22;13592;50.838;4.412;2023-01-06T01:04:15;13.40;99.90
25741;DHT22;13592;50.838;4.412;2023-01-06T01:12:48;13.30;99.90
25741;DHT22;13592;50.838;4.412;2023-01-06T01:15:16;13.30;99.90
25741;DHT22;13592;50.838;4.412;2023-01-06T01:17:43;13.20;99.90
25741;DHT22;13592;50.838;4.412;2023-01-06T01:20:10;13.20;99.90
25741;DHT22;13592;50.838;4.412;2023-01-06T01:22:38;13.20;99.90
25741;DHT22;13592;50.838;4.412;2023-01-06T01:25:04;13.20;99.90
25741;DHT22;13592;50.838;4.412;2023-01-06T01:27:36;13.20;99.90
25741;DHT22;13592;50.838;4.412;2023-01-06T01:30:05;13.30;99.90
25741;DHT22;13592;50.838;4.412;2023-01-06T01:32:33;13.40;99.90
25741;DHT22;13592;50.838;4.412;2023-01-06T01:35:05;13.40;99.90
25741;DHT22;13592;50.838;4.412;2023-01-06T01:37:43;13.40;99.90
25741;DHT22;13592;50.838;4.412;2023-01-06T01:42:47;13.00;99.90
25741;DHT22;13592;50.838;4.412;2023-01-06T01:45:19;13.00;99.90
25741;DHT22;13592;50.838;4.412;2023-01-06T01:47:51;13.00;99.90
25741;DHT22;13592;50.838;4.412;2023-01-06T01:53:39;12.90;99.90
25741;DHT22;13592;50.838;4.412;2023-01-06T01:56:07;12.90;99.90
25741;DHT22;13592;50.838;4.412;2023-01-06T01:58:37;12.90;99.90
25741;DHT22;13592;50.838;4.412;2023-01-06T02:01:16;12.90;99.90
25741;DHT22;13592;50.838;4.412;2023-01-06T02:03:43;12.90;99.90
25741;DHT22;13592;50.838;4.412;2023-01-06T02:06:13;12.80;99.90
25741;DHT22;13592;50.838;4.412;2023-01-06T02:09:25;12.80;99.90
25741;DHT22;13592;50.838;4.412;2023-01-06T02:11:31;13.00;99.90
25741;DHT22;13592;50.838;4.412;2023-01-06T02:14:14;13.00;99.90
25741;DHT22;13592;50.838;4.412;2023-01-06T02:16:45;13.10;99.90
25741;DHT22;13592;50.838;4.412;2023-01-06T02:32:46;12.80;99.90
25741;DHT22;13592;50.838;4.412;2023-01-06T02:35:36;12.70;99.90
25741;DHT22;13592;50.838;4.412;2023-01-06T02:49:31;12.70;99.90
25741;DHT22;13592;50.838;4.412;2023-01-06T02:52:12;12.60;99.90
25741;DHT22;13592;50.838;4.412;2023-01-06T02:54:45;12.80;99.90
25741;DHT22;13592;50.838;4.412;2023-01-06T02:57:29;12.80;99.90
25741;DHT22;13592;50.838;4.412;2023-01-06T03:00:19;12.70;99.90
25741;DHT22;13592;50.838;4.412;2023-01-06T03:02:54;12.80;99.90
25741;DHT22;13592;50.838;4.412;2023-01-06T03:05:32;12.80;99.90
25741;DHT22;13592;50.838;4.412;2023-01-06T03:10:36;12.70;99.90
25741;DHT22;13592;50.838;4.412;2023-01-06T03:16:16;12.50;99.90
25741;DHT22;13592;50.838;4.412;2023-01-06T03:21:25;12.60;99.90
25741;DHT22;13592;50.838;4.412;2023-01-06T03:24:05;12.60;99.90
25741;DHT22;13592;50.838;4.412;2023-01-06T03:26:33;12.80;99.90
25741;DHT22;13592;50.838;4.412;2023-01-06T03:29:23;12.70;99.90
25741;DHT22;13592;50.838;4.412;2023-01-06T03:31:56;12.90;99.90
25741;DHT22;13592;50.838;4.412;2023-01-06T03:40:45;12.60;99.90
25741;DHT22;13592;50.838;4.412;2023-01-06T03:43:22;12.60;99.90
25741;DHT22;13592;50.838;4.412;2023-01-06T03:59:38;12.50;99.90
25741;DHT22;13592;50.838;4.412;2023-01-06T04:02:05;12.60;99.90
25741;DHT22;13592;50.838;4.412;2023-01-06T04:07:14;12.60;99.90
25741;DHT22;13592;50.838;4.412;2023-01-06T04:09:41;12.60;99.90
25741;DHT22;13592;50.838;4.412;2023-01-06T04:12:20;12.60;99.90
25741;DHT22;13592;50.838;4.412;2023-01-06T04:15:08;12.60;99.90
25741;DHT22;13592;50.838;4.412;2023-01-06T04:17:34;12.60;99.90
25741;DHT22;13592;50.838;4.412;2023-01-06T04:20:04;12.70;99.90
25741;DHT22;13592;50.838;4.412;2023-01-06T04:25:54;12.50;99.90
25741;DHT22;13592;50.838;4.412;2023-01-06T04:28:25;12.50;99.90
25741;DHT22;13592;50.838;4.412;2023-01-06T04:31:00;12.50;99.90
25741;DHT22;13592;50.838;4.412;2023-01-06T04:33:26;12.70;99.90
25741;DHT22;13592;50.838;4.412;2023-01-06T04:35:54;12.60;99.90
25741;DHT22;13592;50.838;4.412;2023-01-06T04:38:26;12.60;99.90
25741;DHT22;13592;50.838;4.412;2023-01-06T04:43:41;12.50;99.90
25741;DHT22;13592;50.838;4.412;2023-01-06T04:46:12;12.60;99.90
25741;DHT22;13592;50.838;4.412;2023-01-06T04:48:41;12.60;99.90
25741;DHT22;13592;50.838;4.412;2023-01-06T04:51:12;12.80;99.90
25741;DHT22;13592;50.838;4.412;2023-01-06T04:53:41;12.60;99.90
25741;DHT22;13592;50.838;4.412;2023-01-06T04:56:07;12.60;99.90
25741;DHT22;13592;50.838;4.412;2023-01-06T04:58:53;12.60;99.90
25741;DHT22;13592;50.838;4.412;2023-01-06T05:01:23;12.60;99.90
25741;DHT22;13592;50.838;4.412;2023-01-06T05:06:23;12.40;99.90
25741;DHT22;13592;50.838;4.412;2023-01-06T05:08:51;12.50;99.90
25741;DHT22;13592;50.838;4.412;2023-01-06T05:13:45;12.60;99.90
25741;DHT22;13592;50.838;4.412;2023-01-06T05:18:50;12.50;99.90
25741;DHT22;13592;50.838;4.412;2023-01-06T05:21:22;12.40;99.90
25741;DHT22;13592;50.838;4.412;2023-01-06T05:26:30;12.40;99.90
25741;DHT22;13592;50.838;4.412;2023-01-06T05:29:04;12.50;99.90
25741;DHT22;13592;50.838;4.412;2023-01-06T05:31:30;12.70;99.90
25741;DHT22;13592;50.838;4.412;2023-01-06T05:33:58;12.70;99.90
25741;DHT22;13592;50.838;4.412;2023-01-06T05:36:32;12.70;99.90
25741;DHT22;13592;50.838;4.412;2023-01-06T05:39:02;12.60;99.90
25741;DHT22;13592;50.838;4.412;2023-01-06T05:41:30;12.60;99.90
25741;DHT22;13592;50.838;4.412;2023-01-06T05:43:58;12.70;99.90
25741;DHT22;13592;50.838;4.412;2023-01-06T05:46:26;12.80;99.90
25741;DHT22;13592;50.838;4.412;2023-01-06T05:48:54;12.80;99.90
25741;DHT22;13592;50.838;4.412;2023-01-06T05:51:20;12.70;99.90
25741;DHT22;13592;50.838;4.412;2023-01-06T05:53:47;12.70;99.90
25741;DHT22;13592;50.838;4.412;2023-01-06T05:58:46;12.70;99.90
25741;DHT22;13592;50.838;4.412;2023-01-06T06:01:23;12.70;99.90
25741;DHT22;13592;50.838;4.412;2023-01-06T06:03:52;12.70;99.90
25741;DHT22;13592;50.838;4.412;2023-01-06T06:06:20;12.80;99.90
25741;DHT22;13592;50.838;4.412;2023-01-06T06:08:55;12.90;99.90
25741;DHT22;13592;50.838;4.412;2023-01-06T06:11:44;12.70;99.90
25741;DHT22;13592;50.838;4.412;2023-01-06T06:14:14;12.70;99.90
25741;DHT22;13592;50.838;4.412;2023-01-06T06:16:48;12.80;99.90
25741;DHT22;13592;50.838;4.412;2023-01-06T06:19:17;12.80;99.90
25741;DHT22;13592;50.838;4.412;2023-01-06T06:21:44;12.80;99.90
25741;DHT22;13592;50.838;4.412;2023-01-06T06:24:13;12.80;99.90
25741;DHT22;13592;50.838;4.412;2023-01-06T06:29:48;12.80;99.90
25741;DHT22;13592;50.838;4.412;2023-01-06T06:32:19;12.60;99.90
25741;DHT22;13592;50.838;4.412;2023-01-06T06:34:45;12.60;99.90
25741;DHT22;13592;50.838;4.412;2023-01-06T06:37:12;12.50;99.90
25741;DHT22;13592;50.838;4.412;2023-01-06T06:39:48;12.50;99.90
25741;DHT22;13592;50.838;4.412;2023-01-06T06:42:17;12.50;99.90
25741;DHT22;13592;50.838;4.412;2023-01-06T06:44:45;12.60;99.90
25741;DHT22;13592;50.838;4.412;2023-01-06T06:47:26;12.70;99.90
25741;DHT22;13592;50.838;4.412;2023-01-06T06:49:52;12.80;99.90
25741;DHT22;13592;50.838;4.412;2023-01-06T06:52:20;12.90;99.90
25741;DHT22;13592;50.838;4.412;2023-01-06T06:54:51;12.90;99.90
25741;DHT22;13592;50.838;4.412;2023-01-06T06:57:29;12.70;99.90
25741;DHT22;13592;50.838;4.412;2023-01-06T06:59:58;12.90;99.90
25741;DHT22;13592;50.838;4.412;2023-01-06T07:02:24;12.80;99.90
25741;DHT22;13592;50.838;4.412;2023-01-06T07:04:54;12.80;99.90
25741;DHT22;13592;50.838;4.412;2023-01-06T07:07:22;12.80;99.90
25741;DHT22;13592;50.838;4.412;2023-01-06T07:09:49;12.80;99.90
25741;DHT22;13592;50.838;4.412;2023-01-06T07:12:14;13.00;99.90
25741;DHT22;13592;50.838;4.412;2023-01-06T07:14:42;13.00;99.90
25741;DHT22;13592;50.838;4.412;2023-01-06T07:17:08;12.90;99.90
25741;DHT22;13592;50.838;4.412;2023-01-06T07:19:35;12.90;99.90
25741;DHT22;13592;50.838;4.412;2023-01-06T07:22:03;12.80;99.90
25741;DHT22;13592;50.838;4.412;2023-01-06T07:24:30;12.90;99.90
25741;DHT22;13592;50.838;4.412;2023-01-06T07:27:06;12.90;99.90
25741;DHT22;13592;50.838;4.412;2023-01-06T07:29:35;12.80;99.90
25741;DHT22;13592;50.838;4.412;2023-01-06T07:34:39;12.80;99.90
25741;DHT22;13592;50.838;4.412;2023-01-06T07:37:05;12.80;99.90
25741;DHT22;13592;50.838;4.412;2023-01-06T07:39:30;12.60;99.90
25741;DHT22;13592;50.838;4.412;2023-01-06T07:42:10;12.70;99.90
25741;DHT22;13592;50.838;4.412;2023-01-06T07:44:38;12.70;99.90
25741;DHT22;13592;50.838;4.412;2023-01-06T07:47:04;12.80;99.90
25741;DHT22;13592;50.838;4.412;2023-01-06T07:49:36;13.00;99.90
25741;DHT22;13592;50.838;4.412;2023-01-06T07:52:04;13.00;99.90
25741;DHT22;13592;50.838;4.412;2023-01-06T07:54:30;13.00;99.90
25741;DHT22;13592;50.838;4.412;2023-01-06T07:56:58;12.80;99.90
25741;DHT22;13592;50.838;4.412;2023-01-06T07:59:26;12.70;99.90
25741;DHT22;13592;50.838;4.412;2023-01-06T08:01:55;12.70;99.90
25741;DHT22;13592;50.838;4.412;2023-01-06T08:04:21;12.80;99.90
25741;DHT22;13592;50.838;4.412;2023-01-06T08:06:47;13.00;99.90
25741;DHT22;13592;50.838;4.412;2023-01-06T08:11:41;12.90;99.90
25741;DHT22;13592;50.838;4.412;2023-01-06T08:14:10;12.80;99.90
25741;DHT22;13592;50.838;4.412;2023-01-06T08:16:39;12.90;99.90
25741;DHT22;13592;50.838;4.412;2023-01-06T08:21:39;12.90;99.90
25741;DHT22;13592;50.838;4.412;2023-01-06T08:24:15;12.90;99.90
25741;DHT22;13592;50.838;4.412;2023-01-06T08:26:41;12.90;99.90
25741;DHT22;13592;50.838;4.412;2023-01-06T08:29:16;12.90;99.90
25741;DHT22;13592;50.838;4.412;2023-01-06T08:34:16;13.00;99.90
25741;DHT22;13592;50.838;4.412;2023-01-06T08:36:45;12.90;99.90
25741;DHT22;13592;50.838;4.412;2023-01-06T08:39:11;12.80;99.90
25741;DHT22;13592;50.838;4.412;2023-01-06T08:41:39;12.90;99.90
25741;DHT22;13592;50.838;4.412;2023-01-06T08:44:05;12.90;99.90
25741;DHT22;13592;50.838;4.412;2023-01-06T08:48:59;12.90;99.90
25741;DHT22;13592;50.838;4.412;2023-01-06T08:51:27;12.90;99.90
25741;DHT22;13592;50.838;4.412;2023-01-06T08:53:54;12.80;99.90
25741;DHT22;13592;50.838;4.412;2023-01-06T08:56:24;12.90;99.90
25741;DHT22;13592;50.838;4.412;2023-01-06T08:58:51;13.00;99.90
25741;DHT22;13592;50.838;4.412;2023-01-06T09:01:21;12.90;99.90
25741;DHT22;13592;50.838;4.412;2023-01-06T09:03:47;12.90;99.90
25741;DHT22;13592;50.838;4.412;2023-01-06T09:06:16;12.90;99.90
25741;DHT22;13592;50.838;4.412;2023-01-06T09:08:42;12.90;99.90
25741;DHT22;13592;50.838;4.412;2023-01-06T09:11:09;12.80;99.90
25741;DHT22;13592;50.838;4.412;2023-01-06T09:13:35;12.90;99.90
25741;DHT22;13592;50.838;4.412;2023-01-06T09:16:06;12.90;99.90
25741;DHT22;13592;50.838;4.412;2023-01-06T09:18:32;12.90;99.90
25741;DHT22;13592;50.838;4.412;2023-01-06T09:23:29;12.90;99.90
25741;DHT22;13592;50.838;4.412;2023-01-06T09:25:55;12.90;99.90
25741;DHT22;13592;50.838;4.412;2023-01-06T09:28:22;13.10;99.90
25741;DHT22;13592;50.838;4.412;2023-01-06T09:30:55;13.00;99.90
25741;DHT22;13592;50.838;4.412;2023-01-06T09:33:39;12.90;99.90
25741;DHT22;13592;50.838;4.412;2023-01-06T09:36:08;12.80;99.90
25741;DHT22;13592;50.838;4.412;2023-01-06T09:38:35;12.80;99.90
25741;DHT22;13592;50.838;4.412;2023-01-06T09:41:13;12.80;99.90
25741;DHT22;13592;50.838;4.412;2023-01-06T09:43:47;12.70;99.90
25741;DHT22;13592;50.838;4.412;2023-01-06T09:46:19;12.70;99.90
25741;DHT22;13592;50.838;4.412;2023-01-06T09:51:34;12.60;99.90
25741;DHT22;13592;50.838;4.412;2023-01-06T10:00:03;12.60;99.90
25741;DHT22;13592;50.838;4.412;2023-01-06T10:05:14;12.50;99.90
25741;DHT22;13592;50.838;4.412;2023-01-06T10:07:45;12.60;99.90
25741;DHT22;13592;50.838;4.412;2023-01-06T10:10:23;12.70;99.90
25741;DHT22;13592;50.838;4.412;2023-01-06T10:12:58;12.80;99.90
25741;DHT22;13592;50.838;4.412;2023-01-06T10:18:10;12.60;99.90
25741;DHT22;13592;50.838;4.412;2023-01-06T10:31:24;12.80;99.90
25741;DHT22;13592;50.838;4.412;2023-01-06T10:33:53;12.70;99.90
25741;DHT22;13592;50.838;4.412;2023-01-06T10:36:32;12.60;99.90
25741;DHT22;13592;50.838;4.412;2023-01-06T10:39:04;12.70;99.90
25741;DHT22;13592;50.838;4.412;2023-01-06T10:44:48;12.80;99.90
25741;DHT22;13592;50.838;4.412;2023-01-06T10:47:18;12.80;99.90
25741;DHT22;13592;50.838;4.412;2023-01-06T10:50:13;12.90;99.90
25741;DHT22;13592;50.838;4.412;2023-01-06T10:52:42;12.90;99.90
25741;DHT22;13592;50.838;4.412;2023-01-06T10:55:17;12.80;99.90
25741;DHT22;13592;50.838;4.412;2023-01-06T11:00:19;12.60;99.90
25741;DHT22;13592;50.838;4.412;2023-01-06T11:02:50;12.80;99.90
25741;DHT22;13592;50.838;4.412;2023-01-06T11:05:18;12.80;99.90
25741;DHT22;13592;50.838;4.412;2023-01-06T11:07:56;12.80;99.90
25741;DHT22;13592;50.838;4.412;2023-01-06T11:15:49;12.80;99.90
25741;DHT22;13592;50.838;4.412;2023-01-06T11:18:25;13.00;99.90
25741;DHT22;13592;50.838;4.412;2023-01-06T11:21:03;12.90;99.90
25741;DHT22;13592;50.838;4.412;2023-01-06T11:23:33;13.00;99.90
25741;DHT22;13592;50.838;4.412;2023-01-06T11:26:05;12.80;99.90
25741;DHT22;13592;50.838;4.412;2023-01-06T11:28:33;12.70;99.90
25741;DHT22;13592;50.838;4.412;2023-01-06T11:34:01;12.80;99.90
25741;DHT22;13592;50.838;4.412;2023-01-06T11:36:31;13.00;99.90
25741;DHT22;13592;50.838;4.412;2023-01-06T11:41:55;12.80;99.90
25741;DHT22;13592;50.838;4.412;2023-01-06T11:47:26;12.90;99.90
25741;DHT22;13592;50.838;4.412;2023-01-06T11:52:24;12.90;99.90
25741;DHT22;13592;50.838;4.412;2023-01-06T12:11:36;12.90;99.90
25741;DHT22;13592;50.838;4.412;2023-01-06T12:18:52;13.00;99.90
25741;DHT22;13592;50.838;4.412;2023-01-06T12:32:59;13.10;99.90
25741;DHT22;13592;50.838;4.412;2023-01-06T12:35:33;13.10;99.90
25741;DHT22;13592;50.838;4.412;2023-01-06T12:41:08;13.00;99.90
25741;DHT22;13592;50.838;4.412;2023-01-06T12:43:37;12.90;99.90
25741;DHT22;13592;50.838;4.412;2023-01-06T13:05:30;13.30;99.90
25741;DHT22;13592;50.838;4.412;2023-01-06T13:10:38;13.40;99.90
25741;DHT22;13592;50.838;4.412;2023-01-06T13:18:45;13.50;99.90
25741;DHT22;13592;50.838;4.412;2023-01-06T13:21:18;13.40;99.90
25741;DHT22;13592;50.838;4.412;2023-01-06T13:26:45;13.30;99.90
25741;DHT22;13592;50.838;4.412;2023-01-06T13:48:42;13.70;99.90
25741;DHT22;13592;50.838;4.412;2023-01-06T13:56:32;13.70;99.90
25741;DHT22;13592;50.838;4.412;2023-01-06T14:01:45;13.60;99.90
25741;DHT22;13592;50.838;4.412;2023-01-06T14:06:57;13.70;99.90
25741;DHT22;13592;50.838;4.412;2023-01-06T14:11:55;13.50;99.90
25741;DHT22;13592;50.838;4.412;2023-01-06T14:14:36;13.60;99.90
25741;DHT22;13592;50.838;4.412;2023-01-06T14:17:19;13.90;99.90
25741;DHT22;13592;50.838;4.412;2023-01-06T14:22:41;13.80;99.90
25741;DHT22;13592;50.838;4.412;2023-01-06T14:25:06;13.70;99.90
25741;DHT22;13592;50.838;4.412;2023-01-06T14:38:46;13.90;99.90
25741;DHT22;13592;50.838;4.412;2023-01-06T14:41:25;13.90;99.90
25741;DHT22;13592;50.838;4.412;2023-01-06T14:44:10;13.90;99.90
25741;DHT22;13592;50.838;4.412;2023-01-06T14:46:44;14.00;99.90
25741;DHT22;13592;50.838;4.412;2023-01-06T14:52:29;13.90;99.90
25741;DHT22;13592;50.838;4.412;2023-01-06T14:55:07;13.90;99.90
25741;DHT22;13592;50.838;4.412;2023-01-06T14:57:36;13.90;99.90
25741;DHT22;13592;50.838;4.412;2023-01-06T15:00:18;13.80;99.90
25741;DHT22;13592;50.838;4.412;2023-01-06T15:05:39;13.80;99.90
25741;DHT22;13592;50.838;4.412;2023-01-06T15:11:38;13.60;99.90
25741;DHT22;13592;50.838;4.412;2023-01-06T15:14:04;13.50;99.90
25741;DHT22;13592;50.838;4.412;2023-01-06T15:16:42;13.60;99.90
25741;DHT22;13592;50.838;4.412;2023-01-06T15:19:12;13.60;99.90
25741;DHT22;13592;50.838;4.412;2023-01-06T15:22:19;13.50;99.90
25741;DHT22;13592;50.838;4.412;2023-01-06T15:25:30;13.60;99.90
25741;DHT22;13592;50.838;4.412;2023-01-06T15:30:56;13.60;99.90
25741;DHT22;13592;50.838;4.412;2023-01-06T15:33:40;13.60;99.90
25741;DHT22;13592;50.838;4.412;2023-01-06T15:38:55;13.40;99.90
25741;DHT22;13592;50.838;4.412;2023-01-06T15:41:24;13.50;99.90
25741;DHT22;13592;50.838;4.412;2023-01-06T15:44:19;13.60;99.90
25741;DHT22;13592;50.838;4.412;2023-01-06T15:49:52;13.60;99.90
25741;DHT22;13592;50.838;4.412;2023-01-06T15:57:20;13.50;99.90
25741;DHT22;13592;50.838;4.412;2023-01-06T16:02:18;13.60;99.90
25741;DHT22;13592;50.838;4.412;2023-01-06T16:04:47;13.60;99.90
25741;DHT22;13592;50.838;4.412;2023-01-06T16:10:45;13.50;99.90
25741;DHT22;13592;50.838;4.412;2023-01-06T16:13:17;13.40;99.90
25741;DHT22;13592;50.838;4.412;2023-01-06T16:15:59;13.40;99.90
25741;DHT22;13592;50.838;4.412;2023-01-06T16:18:32;13.40;99.90
25741;DHT22;13592;50.838;4.412;2023-01-06T16:23:53;13.40;99.90
25741;DHT22;13592;50.838;4.412;2023-01-06T16:26:29;13.60;99.90
25741;DHT22;13592;50.838;4.412;2023-01-06T16:31:51;13.60;99.90
25741;DHT22;13592;50.838;4.412;2023-01-06T16:34:35;13.60;99.90
25741;DHT22;13592;50.838;4.412;2023-01-06T16:37:03;13.60;99.90
25741;DHT22;13592;50.838;4.412;2023-01-06T16:39:32;13.60;99.90
25741;DHT22;13592;50.838;4.412;2023-01-06T16:42:05;13.70;99.90
25741;DHT22;13592;50.838;4.412;2023-01-06T16:47:45;13.70;99.90
25741;DHT22;13592;50.838;4.412;2023-01-06T16:50:23;13.80;99.90
25741;DHT22;13592;50.838;4.412;2023-01-06T16:58:40;13.50;99.90
25741;DHT22;13592;50.838;4.412;2023-01-06T17:01:11;13.30;99.90
25741;DHT22;13592;50.838;4.412;2023-01-06T17:06:41;13.30;99.90
25741;DHT22;13592;50.838;4.412;2023-01-06T17:11:56;13.10;99.90
25741;DHT22;13592;50.838;4.412;2023-01-06T17:14:26;13.10;99.90
25741;DHT22;13592;50.838;4.412;2023-01-06T17:16:58;13.10;99.90
25741;DHT22;13592;50.838;4.412;2023-01-06T17:19:29;13.20;99.90
25741;DHT22;13592;50.838;4.412;2023-01-06T17:25:08;13.10;99.90
25741;DHT22;13592;50.838;4.412;2023-01-06T17:27:39;13.10;99.90
25741;DHT22;13592;50.838;4.412;2023-01-06T17:30:25;13.10;99.90
25741;DHT22;13592;50.838;4.412;2023-01-06T17:32:51;13.20;99.90
25741;DHT22;13592;50.838;4.412;2023-01-06T17:35:28;13.10;99.90
25741;DHT22;13592;50.838;4.412;2023-01-06T17:41:12;13.00;99.90
25741;DHT22;13592;50.838;4.412;2023-01-06T17:43:46;13.10;99.90
25741;DHT22;13592;50.838;4.412;2023-01-06T17:46:35;13.00;99.90
25741;DHT22;13592;50.838;4.412;2023-01-06T17:51:48;13.10;99.90
25741;DHT22;13592;50.838;4.412;2023-01-06T17:54:29;13.10;99.90
25741;DHT22;13592;50.838;4.412;2023-01-06T17:57:22;13.00;99.90
25741;DHT22;13592;50.838;4.412;2023-01-06T18:00:02;12.90;99.90
25741;DHT22;13592;50.838;4.412;2023-01-06T18:02:49;12.90;99.90
25741;DHT22;13592;50.838;4.412;2023-01-06T18:06:22;13.00;99.90
25741;DHT22;13592;50.838;4.412;2023-01-06T18:10:56;13.10;99.90
25741;DHT22;13592;50.838;4.412;2023-01-06T18:13:27;13.00;99.90
25741;DHT22;13592;50.838;4.412;2023-01-06T18:27:13;12.90;99.90
25741;DHT22;13592;50.838;4.412;2023-01-06T18:32:17;13.00;99.90
25741;DHT22;13592;50.838;4.412;2023-01-06T18:40:23;13.00;99.90
25741;DHT22;13592;50.838;4.412;2023-01-06T18:42:51;13.00;99.90
25741;DHT22;13592;50.838;4.412;2023-01-06T18:45:32;13.10;99.90
25741;DHT22;13592;50.838;4.412;2023-01-06T18:51:01;13.10;99.90
25741;DHT22;13592;50.838;4.412;2023-01-06T18:53:30;13.00;99.90
25741;DHT22;13592;50.838;4.412;2023-01-06T18:56:09;12.90;99.90
25741;DHT22;13592;50.838;4.412;2023-01-06T18:58:49;13.00;99.90
25741;DHT22;13592;50.838;4.412;2023-01-06T19:07:17;13.00;99.90
25741;DHT22;13592;50.838;4.412;2023-01-06T19:09:47;12.90;99.90
25741;DHT22;13592;50.838;4.412;2023-01-06T19:14:50;12.90;99.90
25741;DHT22;13592;50.838;4.412;2023-01-06T19:17:32;12.90;99.90
25741;DHT22;13592;50.838;4.412;2023-01-06T19:23:08;12.90;99.90
25741;DHT22;13592;50.838;4.412;2023-01-06T19:25:39;13.10;99.90
25741;DHT22;13592;50.838;4.412;2023-01-06T19:28:23;13.10;99.90
25741;DHT22;13592;50.838;4.412;2023-01-06T19:31:04;13.10;99.90
25741;DHT22;13592;50.838;4.412;2023-01-06T19:33:54;13.10;99.90
25741;DHT22;13592;50.838;4.412;2023-01-06T19:36:33;13.10;99.90
25741;DHT22;13592;50.838;4.412;2023-01-06T19:39:14;12.90;99.90
25741;DHT22;13592;50.838;4.412;2023-01-06T19:41:47;12.90;99.90
25741;DHT22;13592;50.838;4.412;2023-01-06T19:44:30;13.00;99.90
25741;DHT22;13592;50.838;4.412;2023-01-06T19:46:58;12.90;99.90
25741;DHT22;13592;50.838;4.412;2023-01-06T19:49:33;12.90;99.90
25741;DHT22;13592;50.838;4.412;2023-01-06T19:54:50;12.80;99.90
25741;DHT22;13592;50.838;4.412;2023-01-06T19:57:26;12.90;99.90
25741;DHT22;13592;50.838;4.412;2023-01-06T19:59:55;12.90;99.90
25741;DHT22;13592;50.838;4.412;2023-01-06T20:02:35;13.00;99.90
25741;DHT22;13592;50.838;4.412;2023-01-06T20:05:06;12.90;99.90
25741;DHT22;13592;50.838;4.412;2023-01-06T20:07:32;12.90;99.90
25741;DHT22;13592;50.838;4.412;2023-01-06T20:10:28;12.90;99.90
25741;DHT22;13592;50.838;4.412;2023-01-06T20:12:57;12.90;99.90
25741;DHT22;13592;50.838;4.412;2023-01-06T20:15:39;12.90;99.90
25741;DHT22;13592;50.838;4.412;2023-01-06T20:18:17;12.90;99.90
25741;DHT22;13592;50.838;4.412;2023-01-06T20:23:58;12.90;99.90
25741;DHT22;13592;50.838;4.412;2023-01-06T20:37:15;12.80;99.90
25741;DHT22;13592;50.838;4.412;2023-01-06T20:39:55;12.90;99.90
25741;DHT22;13592;50.838;4.412;2023-01-06T20:42:34;12.80;99.90
25741;DHT22;13592;50.838;4.412;2023-01-06T20:45:08;12.70;99.90
25741;DHT22;13592;50.838;4.412;2023-01-06T20:47:41;12.70;99.90
25741;DHT22;13592;50.838;4.412;2023-01-06T20:50:24;12.80;99.90
25741;DHT22;13592;50.838;4.412;2023-01-06T20:52:56;12.90;99.90
25741;DHT22;13592;50.838;4.412;2023-01-06T20:55:46;12.80;99.90
25741;DHT22;13592;50.838;4.412;2023-01-06T20:58:27;12.80;99.90
25741;DHT22;13592;50.838;4.412;2023-01-06T21:00:58;12.90;99.90
25741;DHT22;13592;50.838;4.412;2023-01-06T21:03:24;12.90;99.90
25741;DHT22;13592;50.838;4.412;2023-01-06T21:05:51;12.90;99.90
25741;DHT22;13592;50.838;4.412;2023-01-06T21:08:38;12.80;99.90
25741;DHT22;13592;50.838;4.412;2023-01-06T21:11:11;12.90;99.90
25741;DHT22;13592;50.838;4.412;2023-01-06T21:13:49;12.90;99.90
25741;DHT22;13592;50.838;4.412;2023-01-06T21:19:09;13.00;99.90
25741;DHT22;13592;50.838;4.412;2023-01-06T21:21:39;13.00;99.90
25741;DHT22;13592;50.838;4.412;2023-01-06T21:24:18;12.90;99.90
25741;DHT22;13592;50.838;4.412;2023-01-06T21:26:50;12.80;99.90
25741;DHT22;13592;50.838;4.412;2023-01-06T21:32:14;12.90;99.90
25741;DHT22;13592;50.838;4.412;2023-01-06T21:37:56;12.90;99.90
25741;DHT22;13592;50.838;4.412;2023-01-06T21:40:34;12.90;99.90
25741;DHT22;13592;50.838;4.412;2023-01-06T21:45:47;12.90;99.90
25741;DHT22;13592;50.838;4.412;2023-01-06T21:48:23;12.80;99.90
25741;DHT22;13592;50.838;4.412;2023-01-06T21:50:55;12.70;99.90
25741;DHT22;13592;50.838;4.412;2023-01-06T21:53:22;12.80;99.90
25741;DHT22;13592;50.838;4.412;2023-01-06T21:55:54;12.80;99.90
25741;DHT22;13592;50.838;4.412;2023-01-06T21:58:36;12.80;99.90
25741;DHT22;13592;50.838;4.412;2023-01-06T22:01:08;12.80;99.90
25741;DHT22;13592;50.838;4.412;2023-01-06T22:03:34;12.80;99.90
25741;DHT22;13592;50.838;4.412;2023-01-06T22:09:05;12.80;99.90
25741;DHT22;13592;50.838;4.412;2023-01-06T22:11:31;13.00;99.90
25741;DHT22;13592;50.838;4.412;2023-01-06T22:14:20;12.80;99.90
25741;DHT22;13592;50.838;4.412;2023-01-06T22:19:25;12.80;99.90
25741;DHT22;13592;50.838;4.412;2023-01-06T22:24:43;12.80;99.90
25741;DHT22;13592;50.838;4.412;2023-01-06T22:29:45;13.00;99.90
25741;DHT22;13592;50.838;4.412;2023-01-06T22:32:16;12.80;99.90
25741;DHT22;13592;50.838;4.412;2023-01-06T22:59:46;12.90;99.90
25741;DHT22;13592;50.838;4.412;2023-01-06T23:08:22;12.80;99.90
25741;DHT22;13592;50.838;4.412;2023-01-06T23:11:06;12.80;99.90
25741;DHT22;13592;50.838;4.412;2023-01-06T23:13:33;12.80;99.90
25741;DHT22;13592;50.838;4.412;2023-01-06T23:18:44;13.00;99.90
25741;DHT22;13592;50.838;4.412;2023-01-06T23:21:33;13.00;99.90
25741;DHT22;13592;50.838;4.412;2023-01-06T23:24:09;12.90;99.90
25741;DHT22;13592;50.838;4.412;2023-01-06T23:26:49;13.00;99.90
25741;DHT22;13592;50.838;4.412;2023-01-06T23:29:27;12.90;99.90